Time;durP1;ratioP1;P1;durP2;ratioP2;P2;SDS_P1;SDS_P2;PMS_P1;PMS_P2;Temp;Humidity;BMP_temperature;BMP_pressure;BME280_temperature;BME280_humidity;BME280_pressure;Samples;Min_cycle;Max_cycle;Signal;HPM_P1;HPM_P2
2023/01/21 00:00:23;;;;;;;2.23;1.70;;;;;;;;;;4990977;28;20030;-75
2023/01/21 00:02:48;;;;;;;2.13;1.65;;;;;;;;;;4998888;28;20034;-74
2023/01/21 00:05:13;;;;;;;2.40;1.87;;;;;;;;;;4988324;28;20043;-75
2023/01/21 00:07:39;;;;;;;2.45;1.85;;;;;;;;;;4987692;28;20049;-74
2023/01/21 00:10:04;;;;;;;2.43;1.90;;;;;;;;;;5003916;28;20038;-75
2023/01/21 00:12:29;;;;;;;2.25;1.60;;;;;;;;;;4984211;28;20042;-73
2023/01/21 00:14:55;;;;;;;3.38;1.98;;;;;;;;;;4971010;28;20420;-74
2023/01/21 00:17:20;;;;;;;2.47;1.90;;;;;;;;;;4990159;28;20047;-74
2023/01/21 00:19:45;;;;;;;2.47;1.77;;;;;;;;;;4972246;28;20132;-75
2023/01/21 00:22:11;;;;;;;2.80;2.00;;;;;;;;;;4988952;28;20045;-74
2023/01/21 00:24:36;;;;;;;2.38;1.73;;;;;;;;;;4999070;28;20038;-74
2023/01/21 00:27:01;;;;;;;2.85;2.05;;;;;;;;;;4987265;28;20088;-73
2023/01/21 00:29:26;;;;;;;2.23;1.60;;;;;;;;;;4988551;28;20093;-76
2023/01/21 00:31:52;;;;;;;3.93;1.93;;;;;;;;;;4987184;28;20070;-74
2023/01/21 00:34:17;;;;;;;3.20;1.77;;;;;;;;;;4988403;28;20286;-75
2023/01/21 00:36:42;;;;;;;2.50;1.60;;;;;;;;;;4992049;28;20126;-74
2023/01/21 00:39:07;;;;;;;2.42;1.73;;;;;;;;;;5004007;28;20031;-74
2023/01/21 00:41:33;;;;;;;2.30;1.57;;;;;;;;;;4986718;28;20057;-74
2023/01/21 00:43:58;;;;;;;2.70;2.00;;;;;;;;;;4970683;28;20290;-74
2023/01/21 00:46:23;;;;;;;2.77;2.00;;;;;;;;;;5004381;28;20286;-74
2023/01/21 00:48:48;;;;;;;2.33;1.77;;;;;;;;;;4979151;28;20640;-74
2023/01/21 00:51:14;;;;;;;2.63;2.10;;;;;;;;;;4989619;28;20285;-74
2023/01/21 00:53:40;;;;;;;2.60;1.77;;;;;;;;;;4985468;28;20042;-74
2023/01/21 00:56:06;;;;;;;2.55;1.80;;;;;;;;;;4972057;28;20045;-74
2023/01/21 00:58:32;;;;;;;2.47;1.70;;;;;;;;;;4982107;28;20091;-74
2023/01/21 01:01:07;;;;;;;2.65;1.90;;;;;;;;;;4987755;28;20093;-73
2023/01/21 01:03:32;;;;;;;3.25;2.20;;;;;;;;;;4986014;28;20042;-74
2023/01/21 01:06:04;;;;;;;2.97;1.90;;;;;;;;;;4986373;28;20035;-74
2023/01/21 01:08:30;;;;;;;3.22;2.30;;;;;;;;;;4969294;28;20042;-74
2023/01/21 01:10:55;;;;;;;2.25;1.80;;;;;;;;;;4987937;28;20889;-74
2023/01/21 01:13:20;;;;;;;2.87;2.07;;;;;;;;;;4969871;28;20237;-74
2023/01/21 01:15:46;;;;;;;3.20;2.03;;;;;;;;;;4962371;28;20288;-73
2023/01/21 01:18:11;;;;;;;2.42;2.00;;;;;;;;;;4978715;28;20287;-74
2023/01/21 01:20:36;;;;;;;2.58;1.90;;;;;;;;;;4989856;28;20059;-74
2023/01/21 01:23:04;;;;;;;2.90;1.97;;;;;;;;;;4995225;28;20060;-74
2023/01/21 01:25:29;;;;;;;2.63;2.22;;;;;;;;;;5004665;28;20125;-75
2023/01/21 01:27:54;;;;;;;2.63;2.00;;;;;;;;;;4990906;28;20076;-75
2023/01/21 01:30:20;;;;;;;2.60;2.10;;;;;;;;;;4973567;28;20030;-75
2023/01/21 01:32:45;;;;;;;2.75;2.15;;;;;;;;;;4990705;28;20122;-74
2023/01/21 01:35:10;;;;;;;2.50;1.83;;;;;;;;;;4990568;28;20030;-74
2023/01/21 01:37:35;;;;;;;2.77;1.83;;;;;;;;;;4990662;28;20395;-74
2023/01/21 01:40:01;;;;;;;2.93;2.30;;;;;;;;;;4990564;28;20042;-74
2023/01/21 01:42:26;;;;;;;2.65;2.10;;;;;;;;;;4972745;28;20286;-74
2023/01/21 01:44:51;;;;;;;2.50;2.03;;;;;;;;;;4973142;28;20038;-75
2023/01/21 01:47:16;;;;;;;2.97;2.07;;;;;;;;;;4991910;28;20822;-74
2023/01/21 01:49:42;;;;;;;2.70;2.05;;;;;;;;;;4972194;28;20300;-74
2023/01/21 01:52:07;;;;;;;2.40;1.97;;;;;;;;;;4986219;28;20042;-74
2023/01/21 01:54:34;;;;;;;2.58;2.10;;;;;;;;;;4988326;28;20100;-75
2023/01/21 01:57:00;;;;;;;2.78;2.05;;;;;;;;;;4974644;28;20035;-75
2023/01/21 01:59:25;;;;;;;2.38;1.80;;;;;;;;;;4978516;28;20038;-74
2023/01/21 02:01:50;;;;;;;3.30;2.30;;;;;;;;;;4974408;28;20053;-74
2023/01/21 02:04:17;;;;;;;2.90;2.10;;;;;;;;;;4972574;28;20521;-74
2023/01/21 02:06:42;;;;;;;2.72;2.20;;;;;;;;;;4994969;28;20038;-74
2023/01/21 02:09:07;;;;;;;2.97;2.00;;;;;;;;;;5005018;28;20091;-74
2023/01/21 02:11:32;;;;;;;2.60;1.87;;;;;;;;;;4978010;28;20125;-74
2023/01/21 02:13:57;;;;;;;3.43;2.20;;;;;;;;;;4976570;28;20125;-74
2023/01/21 02:16:29;;;;;;;2.90;2.00;;;;;;;;;;5004877;28;20058;-73
2023/01/21 02:19:09;;;;;;;2.97;2.35;;;;;;;;;;5004737;28;20290;-74
2023/01/21 02:21:39;;;;;;;3.20;2.10;;;;;;;;;;4990216;28;20046;-74
2023/01/21 02:24:05;;;;;;;2.78;2.30;;;;;;;;;;4979206;28;20041;-74
2023/01/21 02:26:37;;;;;;;3.08;2.47;;;;;;;;;;5005415;28;20034;-74
2023/01/21 02:29:21;;;;;;;2.80;2.00;;;;;;;;;;5004100;28;20041;-74
2023/01/21 02:31:58;;;;;;;3.15;2.35;;;;;;;;;;4991635;28;20034;-74
2023/01/21 02:34:36;;;;;;;2.97;2.20;;;;;;;;;;4998449;28;20054;-75
2023/01/21 02:37:01;;;;;;;3.05;2.22;;;;;;;;;;4991283;28;20037;-75
2023/01/21 02:39:45;;;;;;;2.90;2.00;;;;;;;;;;4989883;28;20022;-75
2023/01/21 02:42:16;;;;;;;2.72;2.00;;;;;;;;;;4980049;28;20050;-75
2023/01/21 02:44:42;;;;;;;2.70;2.28;;;;;;;;;;4982382;28;20036;-75
2023/01/21 02:47:25;;;;;;;2.60;1.92;;;;;;;;;;4973696;28;20038;-74
2023/01/21 02:49:58;;;;;;;2.45;2.10;;;;;;;;;;4992554;28;20134;-73
2023/01/21 02:52:23;;;;;;;2.78;2.25;;;;;;;;;;4974802;28;20058;-74
2023/01/21 02:54:50;;;;;;;2.53;2.05;;;;;;;;;;4972443;28;20034;-73
2023/01/21 02:57:17;;;;;;;2.97;2.20;;;;;;;;;;4987859;28;20113;-74
2023/01/21 02:59:44;;;;;;;2.75;2.10;;;;;;;;;;4989205;28;20046;-74
2023/01/21 03:02:30;;;;;;;2.80;2.20;;;;;;;;;;4987855;28;20034;-74
2023/01/21 03:05:09;;;;;;;3.47;2.28;;;;;;;;;;4988728;28;20033;-73
2023/01/21 03:07:35;;;;;;;2.55;2.08;;;;;;;;;;4959647;28;20188;-74
2023/01/21 03:10:05;;;;;;;2.40;1.98;;;;;;;;;;4985240;28;20030;-73
2023/01/21 03:12:49;;;;;;;2.50;1.90;;;;;;;;;;4986394;28;20396;-73
2023/01/21 03:18:18;;;;;;;2.47;2.10;;;;;;;;;;4973639;28;20096;-74
2023/01/21 03:20:50;;;;;;;2.67;2.10;;;;;;;;;;4971510;28;20512;-73
2023/01/21 03:23:16;;;;;;;2.63;2.03;;;;;;;;;;4993834;28;20046;-74
2023/01/21 03:25:42;;;;;;;2.08;1.77;;;;;;;;;;4984869;28;20532;-73
2023/01/21 03:28:08;;;;;;;2.33;1.87;;;;;;;;;;4971686;28;20045;-74
2023/01/21 03:30:33;;;;;;;2.33;2.00;;;;;;;;;;4987201;28;20285;-74
2023/01/21 03:32:58;;;;;;;2.53;2.10;;;;;;;;;;4988497;28;20428;-74
2023/01/21 03:35:28;;;;;;;2.60;2.20;;;;;;;;;;4990960;28;20288;-73
2023/01/21 03:38:05;;;;;;;2.72;2.03;;;;;;;;;;4971781;28;20356;-75
2023/01/21 03:40:35;;;;;;;2.42;1.90;;;;;;;;;;5002503;28;20420;-75
2023/01/21 03:43:02;;;;;;;2.63;2.20;;;;;;;;;;4987027;28;20117;-75
2023/01/21 03:45:37;;;;;;;3.13;2.25;;;;;;;;;;4978258;28;20751;-74
2023/01/21 03:48:04;;;;;;;3.10;2.38;;;;;;;;;;5003420;28;20042;-73
2023/01/21 03:50:34;;;;;;;2.85;2.20;;;;;;;;;;4971075;28;20030;-74
2023/01/21 03:52:59;;;;;;;2.83;2.20;;;;;;;;;;4979519;28;20158;-73
2023/01/21 03:55:24;;;;;;;2.50;2.00;;;;;;;;;;4987892;28;20102;-76
2023/01/21 03:57:49;;;;;;;2.20;2.00;;;;;;;;;;5000452;28;20065;-73
2023/01/21 04:00:15;;;;;;;2.30;2.10;;;;;;;;;;4988171;28;20343;-76
2023/01/21 04:02:40;;;;;;;2.60;2.10;;;;;;;;;;4987165;28;20273;-75
2023/01/21 04:05:06;;;;;;;2.23;2.00;;;;;;;;;;4988619;28;20034;-76
2023/01/21 04:07:31;;;;;;;2.97;2.10;;;;;;;;;;4987178;28;20035;-75
2023/01/21 04:09:56;;;;;;;2.70;2.23;;;;;;;;;;4988542;28;20065;-75
2023/01/21 04:12:21;;;;;;;2.10;1.90;;;;;;;;;;4971374;28;20292;-76
2023/01/21 04:14:47;;;;;;;3.20;2.38;;;;;;;;;;4975576;28;20029;-75
2023/01/21 04:17:12;;;;;;;2.90;2.03;;;;;;;;;;4975534;28;20034;-76
2023/01/21 04:19:37;;;;;;;3.40;1.93;;;;;;;;;;4970080;28;20297;-75
2023/01/21 04:22:02;;;;;;;2.47;2.03;;;;;;;;;;4988338;28;20039;-75
2023/01/21 04:24:28;;;;;;;2.33;2.00;;;;;;;;;;4988383;28;20419;-75
2023/01/21 04:26:53;;;;;;;2.67;2.13;;;;;;;;;;4976199;28;20281;-75
2023/01/21 04:29:19;;;;;;;2.28;1.90;;;;;;;;;;4987754;28;20117;-75
2023/01/21 04:31:44;;;;;;;2.70;2.08;;;;;;;;;;4970538;28;20054;-74
2023/01/21 04:34:10;;;;;;;2.72;2.08;;;;;;;;;;4988363;28;20032;-75
2023/01/21 04:36:35;;;;;;;2.55;2.00;;;;;;;;;;4993954;28;20042;-74
2023/01/21 04:39:00;;;;;;;2.50;2.00;;;;;;;;;;4966752;28;20030;-74
2023/01/21 04:41:25;;;;;;;2.70;2.13;;;;;;;;;;4969697;28;20294;-73
2023/01/21 04:43:50;;;;;;;2.43;2.10;;;;;;;;;;4963583;28;20057;-74
2023/01/21 04:46:16;;;;;;;2.73;2.07;;;;;;;;;;4984807;28;20281;-74
2023/01/21 04:48:41;;;;;;;2.30;1.93;;;;;;;;;;4970273;28;20042;-74
2023/01/21 04:51:06;;;;;;;2.57;1.80;;;;;;;;;;4988305;28;20340;-74
2023/01/21 04:53:31;;;;;;;2.50;2.00;;;;;;;;;;4973327;28;20358;-75
2023/01/21 04:55:57;;;;;;;2.35;2.00;;;;;;;;;;4991356;28;20067;-74
2023/01/21 04:58:22;;;;;;;2.20;1.90;;;;;;;;;;4973940;28;20052;-75
2023/01/21 05:00:47;;;;;;;2.90;1.90;;;;;;;;;;4989759;28;20289;-74
2023/01/21 05:03:13;;;;;;;2.57;2.10;;;;;;;;;;4957312;28;20292;-74
2023/01/21 05:05:38;;;;;;;2.53;2.10;;;;;;;;;;4989331;28;20290;-75
2023/01/21 05:08:03;;;;;;;2.70;2.03;;;;;;;;;;4991237;28;20827;-73
2023/01/21 05:10:28;;;;;;;2.15;1.90;;;;;;;;;;4973419;28;20120;-74
2023/01/21 05:12:53;;;;;;;2.93;1.97;;;;;;;;;;4972896;28;20042;-74
2023/01/21 05:15:19;;;;;;;3.07;2.20;;;;;;;;;;4976630;28;20045;-73
2023/01/21 05:17:44;;;;;;;2.78;2.25;;;;;;;;;;4996315;28;20121;-76
2023/01/21 05:20:09;;;;;;;2.83;2.10;;;;;;;;;;4991010;28;20030;-71
2023/01/21 05:22:35;;;;;;;2.85;2.00;;;;;;;;;;4989937;28;20329;-78
2023/01/21 05:25:00;;;;;;;3.13;2.27;;;;;;;;;;4994241;28;20500;-79
2023/01/21 05:27:25;;;;;;;2.38;1.80;;;;;;;;;;4988541;28;20410;-73
2023/01/21 05:29:51;;;;;;;2.35;1.92;;;;;;;;;;4990448;28;20615;-80
2023/01/21 05:32:17;;;;;;;3.42;2.00;;;;;;;;;;5005910;28;20039;-78
2023/01/21 05:34:42;;;;;;;2.50;1.92;;;;;;;;;;5008048;28;20120;-75
2023/01/21 05:37:07;;;;;;;2.20;1.90;;;;;;;;;;4990531;28;20038;-79
2023/01/21 05:39:32;;;;;;;2.97;1.93;;;;;;;;;;4979011;28;20631;-79
2023/01/21 05:41:57;;;;;;;2.37;1.90;;;;;;;;;;4993046;28;20444;-81
2023/01/21 05:44:23;;;;;;;2.43;2.00;;;;;;;;;;4993509;28;20747;-78
2023/01/21 05:46:48;;;;;;;2.40;2.07;;;;;;;;;;5003470;28;20594;-79
2023/01/21 05:49:13;;;;;;;2.53;1.97;;;;;;;;;;4995898;28;20551;-78
2023/01/21 05:51:38;;;;;;;2.47;1.70;;;;;;;;;;4995300;28;20627;-77
2023/01/21 05:54:03;;;;;;;2.67;2.07;;;;;;;;;;5002291;28;20277;-76
2023/01/21 05:56:29;;;;;;;3.33;2.23;;;;;;;;;;4972086;28;20031;-85
2023/01/21 05:58:54;;;;;;;2.15;1.95;;;;;;;;;;4974720;28;20282;-76
2023/01/21 06:01:19;;;;;;;2.37;2.00;;;;;;;;;;4999309;28;20101;-87
2023/01/21 06:03:44;;;;;;;3.93;2.30;;;;;;;;;;4981173;28;20281;-80
2023/01/21 06:06:10;;;;;;;2.80;2.07;;;;;;;;;;4994727;28;20031;-77
2023/01/21 06:08:35;;;;;;;3.28;2.38;;;;;;;;;;5007153;28;20053;-75
2023/01/21 06:11:00;;;;;;;3.80;2.10;;;;;;;;;;4998310;28;20027;-82
2023/01/21 06:13:25;;;;;;;3.38;2.10;;;;;;;;;;4969609;28;20527;-76
2023/01/21 06:15:57;;;;;;;2.10;1.87;;;;;;;;;;4976666;28;20117;-77
2023/01/21 06:18:22;;;;;;;2.13;1.90;;;;;;;;;;4971302;28;20435;-72
2023/01/21 06:20:47;;;;;;;2.90;2.08;;;;;;;;;;4985010;28;20551;-71
2023/01/21 06:23:12;;;;;;;2.63;1.83;;;;;;;;;;4978033;28;20048;-75
2023/01/21 06:25:38;;;;;;;2.20;1.93;;;;;;;;;;4988556;28;20313;-74
2023/01/21 06:28:03;;;;;;;2.40;1.97;;;;;;;;;;5002583;28;20894;-73
2023/01/21 06:30:28;;;;;;;2.53;2.13;;;;;;;;;;4984339;28;20665;-71
2023/01/21 06:32:53;;;;;;;3.10;2.28;;;;;;;;;;4986149;28;20072;-72
2023/01/21 06:35:19;;;;;;;2.17;1.80;;;;;;;;;;4982762;28;20401;-72
2023/01/21 06:37:44;;;;;;;2.70;2.05;;;;;;;;;;4981626;28;20384;-71
2023/01/21 06:40:10;;;;;;;2.28;2.00;;;;;;;;;;4976689;28;20476;-71
2023/01/21 06:42:35;;;;;;;2.53;1.80;;;;;;;;;;4983511;28;20042;-71
2023/01/21 06:45:01;;;;;;;2.83;1.93;;;;;;;;;;4975275;28;20038;-70
2023/01/21 06:47:26;;;;;;;2.47;2.03;;;;;;;;;;4983832;28;20034;-71
2023/01/21 06:49:51;;;;;;;2.63;2.23;;;;;;;;;;4984683;28;20048;-72
2023/01/21 06:52:16;;;;;;;2.42;2.05;;;;;;;;;;4985081;28;20408;-74
2023/01/21 06:54:42;;;;;;;2.83;2.00;;;;;;;;;;4984300;28;20077;-74
2023/01/21 06:57:07;;;;;;;2.08;1.70;;;;;;;;;;4987867;28;20312;-72
2023/01/21 06:59:33;;;;;;;2.20;1.80;;;;;;;;;;4986437;28;20439;-74
2023/01/21 07:01:58;;;;;;;2.30;1.97;;;;;;;;;;4985923;28;20046;-75
2023/01/21 07:04:24;;;;;;;2.42;2.03;;;;;;;;;;4988291;28;20038;-73
2023/01/21 07:06:50;;;;;;;2.35;1.90;;;;;;;;;;4983308;28;20041;-74
2023/01/21 07:09:15;;;;;;;2.30;2.10;;;;;;;;;;4982513;28;20521;-73
2023/01/21 07:11:40;;;;;;;3.00;2.37;;;;;;;;;;4985384;28;20042;-71
2023/01/21 07:14:05;;;;;;;2.67;2.20;;;;;;;;;;4983733;28;20771;-72
2023/01/21 07:16:31;;;;;;;2.87;2.00;;;;;;;;;;5001941;28;20321;-73
2023/01/21 07:18:56;;;;;;;2.53;2.00;;;;;;;;;;4986548;28;20296;-75
2023/01/21 07:21:23;;;;;;;2.47;2.10;;;;;;;;;;4987874;28;20872;-74
2023/01/21 07:23:50;;;;;;;3.25;1.77;;;;;;;;;;4990117;28;20681;-72
2023/01/21 07:26:15;;;;;;;2.55;2.10;;;;;;;;;;4974633;28;20042;-70
2023/01/21 07:28:40;;;;;;;2.47;2.07;;;;;;;;;;4987951;28;20057;-73
2023/01/21 07:31:06;;;;;;;2.33;2.03;;;;;;;;;;4971937;28;20042;-73
2023/01/21 07:33:31;;;;;;;2.90;2.10;;;;;;;;;;4987224;28;20290;-72
2023/01/21 07:35:56;;;;;;;2.35;2.03;;;;;;;;;;4988953;28;20313;-73
2023/01/21 07:38:21;;;;;;;3.33;2.10;;;;;;;;;;4991388;28;20132;-72
2023/01/21 07:40:47;;;;;;;2.93;1.87;;;;;;;;;;4993555;28;20050;-74
2023/01/21 07:43:12;;;;;;;3.13;2.17;;;;;;;;;;4986139;28;20274;-81
2023/01/21 07:45:38;;;;;;;3.35;2.20;;;;;;;;;;4984068;28;20030;-75
2023/01/21 07:48:03;;;;;;;3.00;1.90;;;;;;;;;;4987095;28;20157;-76
2023/01/21 07:50:28;;;;;;;2.30;2.00;;;;;;;;;;5001318;28;20030;-76
2023/01/21 07:52:54;;;;;;;6.33;2.33;;;;;;;;;;4986792;28;20046;-75
2023/01/21 07:55:19;;;;;;;4.93;1.90;;;;;;;;;;4974941;28;20343;-74
2023/01/21 07:57:44;;;;;;;3.72;2.08;;;;;;;;;;5004486;28;20052;-74
2023/01/21 08:00:10;;;;;;;2.30;1.65;;;;;;;;;;4985386;28;20045;-74
2023/01/21 08:02:35;;;;;;;3.00;2.13;;;;;;;;;;4967891;28;20658;-76
2023/01/21 08:05:00;;;;;;;2.10;1.90;;;;;;;;;;4975421;28;20034;-72
2023/01/21 08:07:26;;;;;;;3.40;2.17;;;;;;;;;;5001905;28;20302;-76
2023/01/21 08:09:51;;;;;;;2.57;1.90;;;;;;;;;;4985885;28;20037;-75
2023/01/21 08:12:16;;;;;;;2.65;1.83;;;;;;;;;;4986836;28;20353;-75
2023/01/21 08:14:41;;;;;;;2.20;1.90;;;;;;;;;;4972128;28;20097;-76
2023/01/21 08:17:06;;;;;;;2.63;1.80;;;;;;;;;;4970968;28;20104;-74
2023/01/21 08:19:32;;;;;;;3.17;2.07;;;;;;;;;;4985651;28;20316;-74
2023/01/21 08:21:57;;;;;;;2.27;2.07;;;;;;;;;;4970088;28;20878;-74
2023/01/21 08:24:22;;;;;;;2.67;2.30;;;;;;;;;;4970275;28;20614;-75
2023/01/21 08:26:48;;;;;;;2.83;2.43;;;;;;;;;;5004224;28;20425;-74
2023/01/21 08:29:13;;;;;;;2.38;2.08;;;;;;;;;;4988461;28;20031;-74
2023/01/21 08:31:38;;;;;;;2.75;2.00;;;;;;;;;;4987875;28;20436;-74
2023/01/21 08:34:03;;;;;;;2.17;1.88;;;;;;;;;;4986910;28;20050;-74
2023/01/21 08:36:29;;;;;;;2.50;2.13;;;;;;;;;;4991713;28;20115;-74
2023/01/21 08:38:54;;;;;;;2.63;2.33;;;;;;;;;;4985994;28;20038;-72
2023/01/21 08:41:19;;;;;;;2.92;2.17;;;;;;;;;;4990156;28;20293;-75
2023/01/21 08:43:45;;;;;;;2.47;1.90;;;;;;;;;;4993653;28;20030;-78
2023/01/21 08:46:10;;;;;;;2.20;1.90;;;;;;;;;;4983190;28;20504;-72
2023/01/21 08:48:38;;;;;;;2.40;2.10;;;;;;;;;;4987771;28;20402;-73
2023/01/21 08:51:04;;;;;;;2.25;1.80;;;;;;;;;;4986636;28;20471;-74
2023/01/21 08:53:29;;;;;;;2.30;2.10;;;;;;;;;;4976397;28;20129;-75
2023/01/21 08:56:00;;;;;;;2.17;1.85;;;;;;;;;;4995888;28;20476;-74
2023/01/21 08:58:26;;;;;;;2.53;1.98;;;;;;;;;;4970295;28;20117;-73
2023/01/21 09:00:51;;;;;;;2.15;1.85;;;;;;;;;;4986168;28;20085;-73
2023/01/21 09:03:18;;;;;;;2.20;2.00;;;;;;;;;;4987466;28;20031;-74
2023/01/21 09:05:43;;;;;;;2.50;2.10;;;;;;;;;;4989925;28;20043;-73
2023/01/21 09:08:09;;;;;;;2.65;2.10;;;;;;;;;;4971644;28;20032;-75
2023/01/21 09:13:18;;;;;;;2.15;1.90;;;;;;;;;;4988498;28;20100;-76
2023/01/21 09:15:44;;;;;;;2.22;1.92;;;;;;;;;;4998654;28;20020;-72
2023/01/21 09:18:09;;;;;;;2.72;2.00;;;;;;;;;;4969524;28;20073;-71
2023/01/21 09:20:34;;;;;;;2.53;1.77;;;;;;;;;;4983699;28;20018;-71
2023/01/21 09:23:00;;;;;;;2.10;1.75;;;;;;;;;;5002795;28;20463;-71
2023/01/21 09:25:25;;;;;;;2.93;2.10;;;;;;;;;;4992186;28;20027;-73
2023/01/21 09:27:50;;;;;;;2.25;2.05;;;;;;;;;;4985788;28;20281;-72
2023/01/21 09:30:16;;;;;;;2.65;2.00;;;;;;;;;;4978607;28;20030;-72
2023/01/21 09:32:41;;;;;;;2.20;1.75;;;;;;;;;;4958758;28;20038;-72
2023/01/21 09:35:07;;;;;;;2.27;1.80;;;;;;;;;;4979338;28;20022;-72
2023/01/21 09:37:33;;;;;;;2.42;2.08;;;;;;;;;;4985508;28;20535;-71
2023/01/21 09:39:59;;;;;;;2.55;2.00;;;;;;;;;;4990246;28;20018;-72
2023/01/21 09:42:24;;;;;;;3.28;2.20;;;;;;;;;;4989831;28;20038;-72
2023/01/21 09:44:50;;;;;;;2.40;1.83;;;;;;;;;;4952549;28;20025;-73
2023/01/21 09:47:24;;;;;;;3.85;2.00;;;;;;;;;;4992324;28;20266;-73
2023/01/21 09:49:53;;;;;;;4.13;1.98;;;;;;;;;;4992312;28;20569;-72
2023/01/21 09:52:21;;;;;;;2.45;1.90;;;;;;;;;;4977597;28;20046;-72
2023/01/21 09:54:46;;;;;;;2.38;1.90;;;;;;;;;;4980769;28;20588;-74
2023/01/21 09:57:24;;;;;;;2.30;1.90;;;;;;;;;;4987374;28;20121;-73
2023/01/21 09:59:49;;;;;;;2.75;1.83;;;;;;;;;;4989486;28;20277;-73
2023/01/21 10:02:17;;;;;;;2.10;1.80;;;;;;;;;;4992719;28;20092;-74
2023/01/21 10:04:51;;;;;;;2.13;1.77;;;;;;;;;;4987997;28;20109;-75
2023/01/21 10:07:17;;;;;;;2.13;1.92;;;;;;;;;;5005928;28;20558;-74
2023/01/21 10:10:03;;;;;;;3.10;1.80;;;;;;;;;;4990268;28;20122;-74
2023/01/21 10:12:34;;;;;;;3.08;2.13;;;;;;;;;;4972541;28;20081;-74
2023/01/21 10:15:06;;;;;;;2.42;1.92;;;;;;;;;;4998360;28;20037;-74
2023/01/21 10:17:38;;;;;;;2.80;1.90;;;;;;;;;;5006666;28;20030;-74
2023/01/21 10:20:06;;;;;;;2.13;1.70;;;;;;;;;;4990397;28;20034;-73
2023/01/21 10:22:31;;;;;;;2.20;1.80;;;;;;;;;;5005335;28;20476;-73
2023/01/21 10:25:01;;;;;;;2.20;1.87;;;;;;;;;;4995557;28;20048;-74
2023/01/21 10:27:26;;;;;;;3.25;1.92;;;;;;;;;;4989514;28;20034;-72
2023/01/21 10:29:56;;;;;;;2.00;1.70;;;;;;;;;;4987790;28;20096;-73
2023/01/21 10:32:23;;;;;;;2.10;1.60;;;;;;;;;;4989004;28;20308;-72
2023/01/21 10:34:52;;;;;;;2.33;1.77;;;;;;;;;;4986822;28;20038;-72
2023/01/21 10:37:17;;;;;;;3.40;1.80;;;;;;;;;;4990204;28;20046;-73
2023/01/21 10:39:59;;;;;;;2.17;1.60;;;;;;;;;;4989013;28;20037;-72
2023/01/21 10:42:34;;;;;;;2.05;1.70;;;;;;;;;;5005636;28;20100;-73
2023/01/21 10:45:04;;;;;;;2.25;1.75;;;;;;;;;;5001863;28;20524;-73
2023/01/21 10:47:41;;;;;;;2.45;1.77;;;;;;;;;;4967307;28;20108;-74
2023/01/21 10:50:06;;;;;;;2.15;1.77;;;;;;;;;;4984904;28;20038;-71
2023/01/21 10:52:50;;;;;;;3.20;1.90;;;;;;;;;;4987894;28;20506;-74
2023/01/21 10:55:26;;;;;;;2.83;1.80;;;;;;;;;;4989310;28;20043;-75
2023/01/21 10:57:51;;;;;;;2.67;1.80;;;;;;;;;;4986919;28;20042;-73
2023/01/21 11:00:21;;;;;;;2.40;1.70;;;;;;;;;;5003196;28;20034;-72
2023/01/21 11:02:49;;;;;;;3.00;1.90;;;;;;;;;;4986131;28;20124;-74
2023/01/21 11:05:14;;;;;;;3.38;2.00;;;;;;;;;;4986744;28;20416;-71
2023/01/21 11:07:41;;;;;;;2.00;1.80;;;;;;;;;;4981272;28;20038;-74
2023/01/21 11:10:06;;;;;;;2.35;1.90;;;;;;;;;;4986845;28;20567;-74
2023/01/21 11:12:31;;;;;;;2.05;1.83;;;;;;;;;;4988022;28;20078;-75
2023/01/21 11:14:57;;;;;;;2.25;1.70;;;;;;;;;;5002685;28;20077;-76
2023/01/21 11:17:29;;;;;;;2.20;1.70;;;;;;;;;;4989583;28;20061;-72
2023/01/21 11:19:58;;;;;;;2.50;1.88;;;;;;;;;;4987568;28;20034;-75
2023/01/21 11:22:25;;;;;;;2.17;1.67;;;;;;;;;;4987989;28;20113;-74
2023/01/21 11:24:50;;;;;;;2.20;1.58;;;;;;;;;;4978153;28;20034;-78
2023/01/21 11:27:22;;;;;;;2.78;1.80;;;;;;;;;;4985986;28;20121;-73
2023/01/21 11:29:47;;;;;;;2.00;1.67;;;;;;;;;;4988473;28;20034;-77
2023/01/21 11:32:19;;;;;;;2.45;1.90;;;;;;;;;;4971814;28;20038;-75
2023/01/21 11:34:45;;;;;;;2.17;1.63;;;;;;;;;;4997986;28;20018;-76
2023/01/21 11:37:17;;;;;;;1.80;1.60;;;;;;;;;;4979453;28;20034;-74
2023/01/21 11:39:48;;;;;;;2.65;1.50;;;;;;;;;;5004086;28;20053;-77
2023/01/21 11:42:14;;;;;;;5.68;1.50;;;;;;;;;;4989917;28;20041;-77
2023/01/21 11:44:52;;;;;;;2.25;1.67;;;;;;;;;;4987042;28;20121;-75
2023/01/21 11:47:27;;;;;;;3.70;1.70;;;;;;;;;;4988130;28;20042;-72
2023/01/21 11:49:52;;;;;;;2.75;1.58;;;;;;;;;;4986552;28;20100;-72
2023/01/21 11:52:18;;;;;;;2.77;1.60;;;;;;;;;;4988220;28;20042;-72
2023/01/21 11:54:43;;;;;;;3.05;1.70;;;;;;;;;;4976419;28;20308;-71
2023/01/21 11:57:18;;;;;;;2.22;1.80;;;;;;;;;;4977189;28;20046;-74
2023/01/21 11:59:44;;;;;;;2.10;1.63;;;;;;;;;;4988258;28;20135;-76
2023/01/21 12:02:18;;;;;;;2.25;1.67;;;;;;;;;;4989655;28;20877;-72
2023/01/21 12:04:45;;;;;;;3.17;1.73;;;;;;;;;;4977759;28;20121;-73
2023/01/21 12:07:17;;;;;;;3.10;1.83;;;;;;;;;;4973226;28;20034;-74
2023/01/21 12:09:46;;;;;;;2.45;1.73;;;;;;;;;;4997691;28;20077;-74
2023/01/21 12:12:12;;;;;;;3.60;1.60;;;;;;;;;;4987686;28;20500;-74
2023/01/21 12:14:51;;;;;;;3.85;1.70;;;;;;;;;;4987274;28;20026;-74
2023/01/21 12:17:31;;;;;;;2.35;1.60;;;;;;;;;;4980620;28;20499;-73
2023/01/21 12:20:17;;;;;;;2.15;1.63;;;;;;;;;;4975951;28;20038;-73
2023/01/21 12:22:42;;;;;;;2.53;1.60;;;;;;;;;;4986567;28;20058;-73
2023/01/21 12:25:26;;;;;;;2.17;1.75;;;;;;;;;;5002833;28;20504;-73
2023/01/21 12:28:10;;;;;;;2.47;1.83;;;;;;;;;;4985371;28;20049;-73
2023/01/21 12:30:36;;;;;;;2.63;1.30;;;;;;;;;;4994179;28;20484;-72
2023/01/21 12:33:24;;;;;;;3.27;1.70;;;;;;;;;;4988006;28;20061;-74
2023/01/21 12:35:53;;;;;;;2.00;1.58;;;;;;;;;;4980567;28;20076;-74
2023/01/21 12:38:26;;;;;;;1.90;1.50;;;;;;;;;;5004941;28;20118;-75
2023/01/21 12:40:52;;;;;;;2.28;1.63;;;;;;;;;;4986224;28;20138;-74
2023/01/21 12:43:18;;;;;;;3.13;1.60;;;;;;;;;;4988197;28;20034;-73
2023/01/21 12:45:45;;;;;;;2.58;1.65;;;;;;;;;;4988913;28;20472;-74
2023/01/21 12:48:10;;;;;;;2.25;1.55;;;;;;;;;;4985349;28;20031;-75
2023/01/21 12:50:40;;;;;;;3.33;1.53;;;;;;;;;;4986805;28;20048;-72
2023/01/21 12:53:08;;;;;;;3.22;1.75;;;;;;;;;;5002469;28;20050;-73
2023/01/21 12:55:39;;;;;;;2.17;1.55;;;;;;;;;;5001031;28;20479;-75
2023/01/21 12:58:11;;;;;;;2.10;1.70;;;;;;;;;;4989014;28;20030;-75
2023/01/21 13:00:37;;;;;;;4.20;1.70;;;;;;;;;;4983791;28;20777;-74
2023/01/21 13:03:11;;;;;;;2.00;1.52;;;;;;;;;;4986387;28;20060;-74
2023/01/21 13:05:39;;;;;;;2.10;1.60;;;;;;;;;;4973474;28;20500;-78
2023/01/21 13:08:12;;;;;;;1.88;1.50;;;;;;;;;;4990080;28;20046;-79
2023/01/21 13:10:39;;;;;;;1.70;1.40;;;;;;;;;;4987741;28;20038;-76
2023/01/21 13:13:13;;;;;;;2.10;1.58;;;;;;;;;;4977656;28;20038;-74
2023/01/21 13:15:39;;;;;;;2.22;1.58;;;;;;;;;;4993319;28;20045;-74
2023/01/21 13:18:07;;;;;;;2.47;1.50;;;;;;;;;;4975108;28;20030;-74
2023/01/21 13:20:33;;;;;;;2.30;1.63;;;;;;;;;;4980381;28;20046;-74
2023/01/21 13:23:06;;;;;;;2.80;1.70;;;;;;;;;;4975040;28;20041;-74
2023/01/21 13:25:47;;;;;;;2.80;1.60;;;;;;;;;;5000823;28;20165;-74
2023/01/21 13:28:14;;;;;;;2.67;1.83;;;;;;;;;;5007276;28;20359;-74
2023/01/21 13:30:40;;;;;;;4.38;1.70;;;;;;;;;;4973168;28;20093;-74
2023/01/21 13:33:24;;;;;;;4.10;1.70;;;;;;;;;;4991778;28;20137;-75
2023/01/21 13:36:01;;;;;;;2.17;1.30;;;;;;;;;;5005537;28;20050;-74
2023/01/21 13:38:30;;;;;;;2.17;1.40;;;;;;;;;;4993425;28;20048;-72
2023/01/21 13:40:59;;;;;;;3.30;1.80;;;;;;;;;;4989946;28;20188;-74
2023/01/21 13:43:53;;;;;;;2.70;1.40;;;;;;;;;;5003962;28;20049;-76
2023/01/21 13:46:34;;;;;;;2.15;1.60;;;;;;;;;;4989284;28;20042;-72
2023/01/21 13:49:12;;;;;;;2.88;1.70;;;;;;;;;;4976459;28;20098;-75
2023/01/21 13:51:42;;;;;;;2.25;1.55;;;;;;;;;;4972339;28;20034;-74
2023/01/21 13:54:13;;;;;;;2.65;1.63;;;;;;;;;;4995417;28;20029;-73
2023/01/21 13:56:57;;;;;;;2.00;1.50;;;;;;;;;;4990542;28;20116;-73
2023/01/21 13:59:30;;;;;;;3.15;1.50;;;;;;;;;;4993904;28;20468;-74
2023/01/21 14:01:55;;;;;;;4.93;1.65;;;;;;;;;;4985349;28;20038;-76
2023/01/21 14:04:24;;;;;;;3.67;1.63;;;;;;;;;;5001777;28;20072;-75
2023/01/21 14:06:53;;;;;;;3.60;1.60;;;;;;;;;;4975748;28;20039;-75
2023/01/21 14:09:29;;;;;;;2.50;1.70;;;;;;;;;;4985631;28;20034;-75
2023/01/21 14:11:56;;;;;;;2.47;1.60;;;;;;;;;;4989412;28;20493;-75
2023/01/21 14:14:40;;;;;;;2.28;1.70;;;;;;;;;;4991840;28;20199;-75
2023/01/21 14:17:11;;;;;;;2.97;1.73;;;;;;;;;;4990433;28;20034;-75
2023/01/21 14:19:37;;;;;;;2.40;1.58;;;;;;;;;;4991305;28;20042;-75
2023/01/21 14:22:08;;;;;;;2.23;1.60;;;;;;;;;;5007583;28;20033;-75
2023/01/21 14:24:33;;;;;;;3.05;1.60;;;;;;;;;;4991888;28;20248;-75
2023/01/21 14:27:02;;;;;;;2.23;1.33;;;;;;;;;;4999946;28;20034;-76
2023/01/21 14:29:30;;;;;;;2.95;1.75;;;;;;;;;;4992532;28;20052;-75
2023/01/21 14:31:56;;;;;;;3.10;1.60;;;;;;;;;;4991463;28;20076;-75
2023/01/21 14:34:23;;;;;;;1.98;1.48;;;;;;;;;;5010098;28;20112;-75
2023/01/21 14:37:01;;;;;;;1.50;1.30;;;;;;;;;;4993299;28;20046;-74
2023/01/21 14:39:30;;;;;;;2.17;1.50;;;;;;;;;;4991247;28;20038;-74
2023/01/21 14:42:05;;;;;;;2.63;1.52;;;;;;;;;;5003210;28;20046;-75
2023/01/21 14:44:43;;;;;;;2.15;1.67;;;;;;;;;;5005750;28;20025;-75
2023/01/21 14:47:13;;;;;;;2.60;1.67;;;;;;;;;;4990010;28;20520;-75
2023/01/21 14:49:39;;;;;;;3.15;1.58;;;;;;;;;;4990529;28;20026;-75
2023/01/21 14:52:04;;;;;;;2.72;1.65;;;;;;;;;;4989136;28;20057;-73